Time;durP1;ratioP1;P1;durP2;ratioP2;P2;SDS_P1;SDS_P2;PMS_P1;PMS_P2;Temp;Humidity;BMP_temperature;BMP_pressure;BME280_temperature;BME280_humidity;BME280_pressure;Samples;Min_cycle;Max_cycle;Signal;HPM_P1;HPM_P2
2022/09/15 00:01:38;;;;;;;2.67;1.90;;;;;;;;;;5016176;28;20030;-82
2022/09/15 00:04:05;;;;;;;3.25;1.58;;;;;;;;;;5015880;28;20501;-82
2022/09/15 00:06:32;;;;;;;2.75;1.75;;;;;;;;;;5015980;28;20561;-84
2022/09/15 00:08:58;;;;;;;2.58;1.58;;;;;;;;;;5016046;28;20393;-79
2022/09/15 00:11:26;;;;;;;3.95;1.67;;;;;;;;;;5016069;28;20030;-81
2022/09/15 00:13:53;;;;;;;4.50;2.08;;;;;;;;;;5015921;28;20029;-80
2022/09/15 00:16:20;;;;;;;3.05;1.65;;;;;;;;;;5016021;28;20025;-81
2022/09/15 00:18:47;;;;;;;2.45;1.67;;;;;;;;;;5016035;28;20473;-81
2022/09/15 00:21:18;;;;;;;2.88;1.70;;;;;;;;;;5016067;28;20186;-80
2022/09/15 00:23:44;;;;;;;4.43;2.67;;;;;;;;;;5016053;28;20072;-82
2022/09/15 00:26:12;;;;;;;4.18;2.13;;;;;;;;;;5015828;28;20115;-81
2022/09/15 00:28:38;;;;;;;3.72;2.05;;;;;;;;;;5015129;28;20504;-82
2022/09/15 00:31:06;;;;;;;5.18;2.40;;;;;;;;;;5015579;28;20034;-81
2022/09/15 00:33:32;;;;;;;3.63;2.08;;;;;;;;;;5015422;28;20096;-82
2022/09/15 00:36:01;;;;;;;3.63;2.30;;;;;;;;;;5015723;28;20042;-81
2022/09/15 00:38:28;;;;;;;3.33;2.50;;;;;;;;;;5015404;28;20057;-83
2022/09/15 00:40:56;;;;;;;4.80;4.05;;;;;;;;;;5019152;28;20382;-80
2022/09/15 00:43:41;;;;;;;3.45;2.50;;;;;;;;;;5014796;28;20030;-79
2022/09/15 00:46:07;;;;;;;5.57;4.95;;;;;;;;;;5015193;28;20072;-82
2022/09/15 00:48:34;;;;;;;3.50;1.92;;;;;;;;;;5015048;28;20080;-83
2022/09/15 00:51:02;;;;;;;3.17;2.00;;;;;;;;;;5015385;28;20026;-82
2022/09/15 00:53:29;;;;;;;3.45;2.83;;;;;;;;;;5014211;28;20086;-82
2022/09/15 00:55:56;;;;;;;5.03;2.03;;;;;;;;;;5014543;28;20424;-80
2022/09/15 00:58:22;;;;;;;3.42;2.20;;;;;;;;;;5014480;28;20036;-81
2022/09/15 01:00:54;;;;;;;4.00;2.15;;;;;;;;;;5014240;28;20087;-83
2022/09/15 01:03:21;;;;;;;3.42;2.35;;;;;;;;;;5015178;28;20037;-83
2022/09/15 01:05:52;;;;;;;2.28;1.80;;;;;;;;;;5014813;28;20057;-80
2022/09/15 01:08:29;;;;;;;2.60;2.05;;;;;;;;;;5014423;28;20172;-83
2022/09/15 01:10:55;;;;;;;3.95;1.85;;;;;;;;;;5014955;28;20026;-79
2022/09/15 01:13:21;;;;;;;2.70;1.98;;;;;;;;;;5013733;28;20018;-81
2022/09/15 01:16:06;;;;;;;2.92;2.00;;;;;;;;;;5014872;28;20160;-82
2022/09/15 01:18:32;;;;;;;;;;;;;;;;;;5013488;28;20057;-79
2022/09/15 01:21:24;;;;;;;3.25;2.25;;;;;;;;;;5014747;28;19951;-83
2022/09/15 01:24:09;;;;;;;4.32;2.30;;;;;;;;;;5011919;28;20045;-81
2022/09/15 01:26:38;;;;;;;3.28;2.20;;;;;;;;;;5014529;28;20061;-81
2022/09/15 01:29:23;;;;;;;4.63;2.20;;;;;;;;;;5014258;28;20058;-80
2022/09/15 01:34:48;;;;;;;2.30;2.00;;;;;;;;;;5014394;28;20060;-84
2022/09/15 01:37:19;;;;;;;3.22;2.20;;;;;;;;;;5014024;28;20033;-80
2022/09/15 01:39:48;;;;;;;2.72;1.92;;;;;;;;;;5014229;28;20030;-83
2022/09/15 01:42:15;;;;;;;2.60;1.88;;;;;;;;;;5013963;28;20420;-79
2022/09/15 01:44:41;;;;;;;3.10;2.42;;;;;;;;;;5014392;28;20022;-84
2022/09/15 01:47:12;;;;;;;4.20;2.38;;;;;;;;;;5015219;28;20446;-80
2022/09/15 01:49:57;;;;;;;3.97;2.53;;;;;;;;;;5014038;28;20022;-81
2022/09/15 01:52:23;;;;;;;;;;;;;;;;;;5014630;28;20028;-81
2022/09/15 01:54:51;;;;;;;4.57;2.40;;;;;;;;;;5014294;28;19905;-81
2022/09/15 01:57:21;;;;;;;3.75;2.50;;;;;;;;;;5013673;28;20083;-82
2022/09/15 01:59:49;;;;;;;3.63;2.47;;;;;;;;;;5013739;28;20030;-82
2022/09/15 02:02:24;;;;;;;2.22;1.95;;;;;;;;;;5014006;28;20076;-83
2022/09/15 02:04:53;;;;;;;3.75;2.30;;;;;;;;;;5014061;28;20096;-82
2022/09/15 02:07:30;;;;;;;4.10;2.55;;;;;;;;;;5013619;28;20100;-83
2022/09/15 02:10:10;;;;;;;2.67;2.15;;;;;;;;;;5013833;28;20030;-82
2022/09/15 02:12:53;;;;;;;2.78;2.33;;;;;;;;;;5014003;28;20101;-84
2022/09/15 02:15:27;;;;;;;3.42;2.28;;;;;;;;;;5013891;28;20018;-79
2022/09/15 02:17:54;;;;;;;3.22;2.15;;;;;;;;;;5013681;28;20484;-82
2022/09/15 02:20:34;;;;;;;3.35;2.25;;;;;;;;;;5013837;28;20042;-84
2022/09/15 02:23:04;;;;;;;4.70;2.40;;;;;;;;;;5013915;28;20551;-83
2022/09/15 02:25:33;;;;;;;2.53;2.33;;;;;;;;;;5012486;28;20408;-85
2022/09/15 02:28:02;;;;;;;4.30;2.50;;;;;;;;;;5013477;28;20034;-82
2022/09/15 02:30:30;;;;;;;3.03;2.10;;;;;;;;;;5013688;28;20056;-79
2022/09/15 02:32:58;;;;;;;3.20;2.30;;;;;;;;;;5013776;28;20097;-82
2022/09/15 02:35:27;;;;;;;3.40;2.00;;;;;;;;;;5013431;28;20060;-80
2022/09/15 02:37:55;;;;;;;3.42;2.47;;;;;;;;;;5012208;28;20026;-87
2022/09/15 02:40:21;;;;;;;4.90;2.45;;;;;;;;;;5012378;28;20018;-81
2022/09/15 02:42:57;;;;;;;4.00;2.03;;;;;;;;;;5013678;28;20054;-83
2022/09/15 02:45:24;;;;;;;4.18;2.22;;;;;;;;;;5012359;28;20478;-80
2022/09/15 02:47:50;;;;;;;3.20;1.90;;;;;;;;;;5013363;28;20030;-81
2022/09/15 02:50:17;;;;;;;3.42;2.03;;;;;;;;;;5013540;28;20025;-81
2022/09/15 02:52:43;;;;;;;2.75;2.13;;;;;;;;;;5016074;28;20099;-82
2022/09/15 02:55:10;;;;;;;3.05;2.10;;;;;;;;;;5019944;28;20022;-82
2022/09/15 02:57:36;;;;;;;4.47;1.90;;;;;;;;;;5017302;28;20030;-79
2022/09/15 03:00:13;;;;;;;3.20;2.10;;;;;;;;;;5017351;28;20018;-80
2022/09/15 03:02:50;;;;;;;2.75;1.98;;;;;;;;;;5017344;28;20018;-81
2022/09/15 03:05:17;;;;;;;3.05;2.17;;;;;;;;;;5017248;28;20022;-82
2022/09/15 03:07:43;;;;;;;4.00;2.78;;;;;;;;;;5016718;28;20428;-80
2022/09/15 03:10:11;;;;;;;3.97;2.65;;;;;;;;;;5017188;28;20022;-80
2022/09/15 03:12:38;;;;;;;4.45;3.13;;;;;;;;;;5017209;28;20076;-81
2022/09/15 03:15:04;;;;;;;4.80;2.67;;;;;;;;;;5017070;28;20485;-83
2022/09/15 03:17:33;;;;;;;4.38;3.00;;;;;;;;;;5015518;28;20068;-84
2022/09/15 03:19:59;;;;;;;4.40;2.72;;;;;;;;;;5015812;28;20059;-83
2022/09/15 03:22:25;;;;;;;5.55;3.13;;;;;;;;;;5016981;28;20489;-79
2022/09/15 03:24:51;;;;;;;6.53;2.88;;;;;;;;;;5017068;28;20033;-79
2022/09/15 03:27:18;;;;;;;4.55;2.80;;;;;;;;;;5016599;28;20491;-82
2022/09/15 03:29:44;;;;;;;8.43;3.80;;;;;;;;;;5015813;28;20033;-84
2022/09/15 03:32:10;;;;;;;4.20;3.42;;;;;;;;;;5016964;28;20018;-81
2022/09/15 03:34:36;;;;;;;4.72;3.40;;;;;;;;;;5016817;28;20131;-81
2022/09/15 03:37:02;;;;;;;11.68;10.48;;;;;;;;;;5017015;28;20028;-88
2022/09/15 03:39:28;;;;;;;7.80;5.60;;;;;;;;;;5016650;28;20033;-83
2022/09/15 03:41:54;;;;;;;5.82;4.28;;;;;;;;;;5015634;28;20396;-86
2022/09/15 03:44:20;;;;;;;3.20;2.90;;;;;;;;;;5016642;28;20021;-82
2022/09/15 03:46:47;;;;;;;4.07;3.33;;;;;;;;;;5016741;28;20022;-81
2022/09/15 03:49:13;;;;;;;9.15;5.18;;;;;;;;;;5016195;28;20481;-81
2022/09/15 03:51:39;;;;;;;11.70;6.43;;;;;;;;;;5016606;28;20052;-83
2022/09/15 03:54:05;;;;;;;4.35;3.35;;;;;;;;;;5015122;28;20060;-81
2022/09/15 03:56:32;;;;;;;7.18;5.60;;;;;;;;;;5016493;28;20018;-82
2022/09/15 03:59:17;;;;;;;7.75;6.45;;;;;;;;;;5015517;28;20034;-82
2022/09/15 04:01:44;;;;;;;3.47;3.17;;;;;;;;;;5014800;28;20057;-80
2022/09/15 04:04:10;;;;;;;4.88;3.40;;;;;;;;;;5015461;28;20049;-81
2022/09/15 04:06:37;;;;;;;4.03;3.00;;;;;;;;;;5016391;28;20101;-80
2022/09/15 04:09:03;;;;;;;5.82;3.67;;;;;;;;;;5016025;28;20096;-81
2022/09/15 04:11:30;;;;;;;9.38;7.40;;;;;;;;;;5016083;28;20017;-82
2022/09/15 04:13:56;;;;;;;8.45;4.30;;;;;;;;;;5016232;28;20022;-82
2022/09/15 04:16:23;;;;;;;5.75;3.30;;;;;;;;;;5015972;28;20028;-82
2022/09/15 04:18:49;;;;;;;5.85;3.17;;;;;;;;;;5015780;28;20026;-81
2022/09/15 04:21:17;;;;;;;7.05;4.07;;;;;;;;;;5015871;28;20026;-82
2022/09/15 04:23:43;;;;;;;7.47;4.15;;;;;;;;;;5015907;28;20022;-82
2022/09/15 04:26:30;;;;;;;4.30;3.33;;;;;;;;;;5015682;28;20044;-80
2022/09/15 04:28:56;;;;;;;3.63;3.10;;;;;;;;;;5015743;28;20113;-82
2022/09/15 04:31:22;;;;;;;5.03;3.30;;;;;;;;;;5015842;28;20022;-82
2022/09/15 04:33:51;;;;;;;4.07;3.03;;;;;;;;;;5015538;28;20057;-83
2022/09/15 04:36:19;;;;;;;5.90;3.28;;;;;;;;;;5015587;28;20030;-82
2022/09/15 04:38:46;;;;;;;6.05;3.40;;;;;;;;;;5015484;28;20030;-81
2022/09/15 04:41:13;;;;;;;7.90;3.53;;;;;;;;;;5015404;28;20054;-82
2022/09/15 04:43:39;;;;;;;4.97;3.17;;;;;;;;;;5015082;28;20030;-82
2022/09/15 04:46:06;;;;;;;9.38;6.70;;;;;;;;;;5015223;28;20030;-82
2022/09/15 04:48:32;;;;;;;6.35;4.32;;;;;;;;;;5015139;28;20060;-80
2022/09/15 04:51:17;;;;;;;8.40;3.15;;;;;;;;;;5015053;28;20029;-80
2022/09/15 04:53:43;;;;;;;;;;;;;;;;;;5015491;28;20056;-79
2022/09/15 04:56:10;;;;;;;5.05;3.10;;;;;;;;;;5015001;28;19905;-83
2022/09/15 04:58:37;;;;;;;16.55;12.45;;;;;;;;;;5015087;28;20341;-81
2022/09/15 05:01:12;;;;;;;20.05;14.82;;;;;;;;;;5014989;28;20044;-82
2022/09/15 05:03:38;;;;;;;;;;;;;;;;;;5015509;28;20076;-82
2022/09/15 05:06:05;;;;;;;3.92;2.80;;;;;;;;;;5014910;28;19909;-82
2022/09/15 05:08:31;;;;;;;21.80;6.22;;;;;;;;;;5014762;28;20037;-83
2022/09/15 05:11:05;;;;;;;5.88;3.85;;;;;;;;;;5014843;28;20389;-82
2022/09/15 05:13:31;;;;;;;40.47;7.28;;;;;;;;;;5014556;28;20148;-82
2022/09/15 05:16:03;;;;;;;6.32;4.35;;;;;;;;;;5014603;28;20382;-83
2022/09/15 05:18:30;;;;;;;5.68;3.83;;;;;;;;;;5014564;28;20540;-83
2022/09/15 05:21:03;;;;;;;5.28;3.75;;;;;;;;;;5014361;28;20062;-82
2022/09/15 05:23:29;;;;;;;8.75;4.57;;;;;;;;;;5016962;28;20037;-79
2022/09/15 05:25:56;;;;;;;11.27;4.65;;;;;;;;;;5013210;28;20384;-83
2022/09/15 05:28:23;;;;;;;6.20;4.32;;;;;;;;;;5010841;28;20065;-79
2022/09/15 05:30:51;;;;;;;7.68;3.67;;;;;;;;;;5006132;28;20029;-79
2022/09/15 05:33:17;;;;;;;10.07;3.65;;;;;;;;;;5031980;28;20018;-81
2022/09/15 05:35:53;;;;;;;4.22;3.40;;;;;;;;;;5031858;28;20048;-80
2022/09/15 05:38:22;;;;;;;7.70;4.75;;;;;;;;;;5030849;28;20026;-79
2022/09/15 05:40:49;;;;;;;9.48;5.53;;;;;;;;;;5032644;28;20027;-82
2022/09/15 05:43:16;;;;;;;10.35;6.32;;;;;;;;;;5032235;28;20488;-81
2022/09/15 05:45:42;;;;;;;10.20;6.80;;;;;;;;;;5031403;28;20029;-81
2022/09/15 05:48:12;;;;;;;12.30;6.95;;;;;;;;;;5031262;28;20075;-78
2022/09/15 05:50:38;;;;;;;10.90;6.63;;;;;;;;;;5031453;28;20040;-84
2022/09/15 05:53:05;;;;;;;11.38;8.88;;;;;;;;;;5030502;28;20397;-82
2022/09/15 05:55:31;;;;;;;13.70;9.68;;;;;;;;;;5031515;28;20472;-83
2022/09/15 05:57:57;;;;;;;15.27;8.55;;;;;;;;;;5031183;28;20037;-84
2022/09/15 06:00:23;;;;;;;11.48;7.32;;;;;;;;;;5031643;28;20107;-83
2022/09/15 06:02:49;;;;;;;12.52;7.45;;;;;;;;;;5031784;28;20029;-86
2022/09/15 06:05:15;;;;;;;12.70;7.22;;;;;;;;;;5029202;28;20025;-83
2022/09/15 06:07:41;;;;;;;11.40;7.72;;;;;;;;;;5031339;28;20026;-80
2022/09/15 06:10:08;;;;;;;11.55;7.10;;;;;;;;;;5031763;28;20022;-81
2022/09/15 06:12:34;;;;;;;12.90;7.28;;;;;;;;;;5031333;28;20045;-82
2022/09/15 06:15:01;;;;;;;18.27;9.07;;;;;;;;;;5031307;28;20096;-84
2022/09/15 06:17:27;;;;;;;14.45;6.78;;;;;;;;;;5014542;28;20025;-83
2022/09/15 06:19:55;;;;;;;12.20;6.28;;;;;;;;;;4993993;28;20436;-79
2022/09/15 06:22:21;;;;;;;11.10;6.32;;;;;;;;;;5011598;28;20034;-81
2022/09/15 06:24:48;;;;;;;8.38;5.15;;;;;;;;;;5011423;28;20033;-79
2022/09/15 06:27:14;;;;;;;9.73;5.35;;;;;;;;;;5011480;28;20062;-80
2022/09/15 06:29:40;;;;;;;6.40;3.72;;;;;;;;;;5019647;28;20546;-82
2022/09/15 06:32:06;;;;;;;8.23;4.13;;;;;;;;;;5024087;28;20029;-81
2022/09/15 06:34:32;;;;;;;7.10;4.30;;;;;;;;;;4997697;28;20061;-80
2022/09/15 06:36:59;;;;;;;8.15;4.88;;;;;;;;;;5011483;28;20097;-79
2022/09/15 06:39:26;;;;;;;7.50;4.25;;;;;;;;;;5001987;28;20026;-79
2022/09/15 06:41:52;;;;;;;9.02;4.50;;;;;;;;;;4991633;28;20022;-79
2022/09/15 06:44:18;;;;;;;8.57;3.85;;;;;;;;;;4991639;28;20029;-82
2022/09/15 06:46:45;;;;;;;6.15;3.75;;;;;;;;;;4991224;28;20022;-80
2022/09/15 06:49:11;;;;;;;8.48;3.78;;;;;;;;;;4991754;28;20393;-81
2022/09/15 06:51:37;;;;;;;5.25;3.38;;;;;;;;;;4991616;28;20027;-82
2022/09/15 06:54:04;;;;;;;5.03;3.38;;;;;;;;;;4991250;28;20109;-82
2022/09/15 06:56:30;;;;;;;6.20;3.67;;;;;;;;;;4991581;28;20149;-80
2022/09/15 06:58:56;;;;;;;5.70;3.60;;;;;;;;;;4991320;28;20452;-84
2022/09/15 07:04:08;;;;;;;25.30;21.95;;;;;;;;;;4991746;28;20159;-81
2022/09/15 07:06:36;;;;;;;30.10;27.20;;;;;;;;;;4991196;28;20030;-81
2022/09/15 07:09:02;;;;;;;16.67;13.40;;;;;;;;;;4991660;28;20022;-84
2022/09/15 07:11:28;;;;;;;10.82;9.68;;;;;;;;;;5016824;28;20021;-80
2022/09/15 07:13:54;;;;;;;11.20;8.55;;;;;;;;;;5015302;28;20172;-82
2022/09/15 07:16:21;;;;;;;13.00;6.63;;;;;;;;;;5013461;28;20026;-83
2022/09/15 07:18:48;;;;;;;9.70;5.35;;;;;;;;;;5017203;28;20022;-83
2022/09/15 07:21:17;;;;;;;7.68;5.30;;;;;;;;;;5020648;28;20474;-81
2022/09/15 07:23:43;;;;;;;7.18;5.38;;;;;;;;;;5030759;28;20083;-80
2022/09/15 07:26:11;;;;;;;8.18;4.80;;;;;;;;;;5031115;28;20032;-82
2022/09/15 07:28:37;;;;;;;5.00;4.15;;;;;;;;;;5031029;28;20065;-79
2022/09/15 07:31:05;;;;;;;5.88;3.63;;;;;;;;;;5030077;28;20029;-80
2022/09/15 07:33:31;;;;;;;6.57;3.35;;;;;;;;;;5030615;28;20030;-79
2022/09/15 07:35:57;;;;;;;6.22;3.08;;;;;;;;;;5029288;28;20044;-79
2022/09/15 07:38:24;;;;;;;9.82;7.25;;;;;;;;;;5031020;28;20030;-82
2022/09/15 07:40:50;;;;;;;19.83;17.77;;;;;;;;;;5013855;28;20030;-84
2022/09/15 07:43:16;;;;;;;11.50;8.95;;;;;;;;;;5000544;28;20026;-83
2022/09/15 07:45:42;;;;;;;10.18;9.18;;;;;;;;;;5009275;28;20021;-82
2022/09/15 07:48:08;;;;;;;9.02;7.38;;;;;;;;;;5022775;28;20025;-80
2022/09/15 07:50:34;;;;;;;8.23;6.57;;;;;;;;;;5013911;28;20029;-82
2022/09/15 07:53:00;;;;;;;7.20;5.13;;;;;;;;;;5021795;28;20495;-82
2022/09/15 07:55:27;;;;;;;6.03;3.65;;;;;;;;;;5018909;28;20021;-80
2022/09/15 07:58:12;;;;;;;6.45;3.40;;;;;;;;;;5021423;28;20447;-81
2022/09/15 08:00:38;;;;;;;4.00;2.30;;;;;;;;;;5022563;28;20026;-81
2022/09/15 08:03:04;;;;;;;5.18;2.28;;;;;;;;;;5022133;28;20056;-83
2022/09/15 08:05:31;;;;;;;3.75;1.70;;;;;;;;;;5014007;28;20034;-79
2022/09/15 08:07:57;;;;;;;2.67;2.00;;;;;;;;;;5013809;28;20045;-82
2022/09/15 08:10:24;;;;;;;3.42;1.88;;;;;;;;;;5013812;28;20028;-78
2022/09/15 08:12:51;;;;;;;3.70;1.60;;;;;;;;;;5012632;28;20076;-79
2022/09/15 08:15:17;;;;;;;3.95;1.90;;;;;;;;;;4998646;28;20400;-79
2022/09/15 08:17:43;;;;;;;3.30;2.10;;;;;;;;;;5013857;28;20472;-80
2022/09/15 08:20:10;;;;;;;2.58;1.60;;;;;;;;;;4995077;28;20061;-81
2022/09/15 08:22:36;;;;;;;2.92;1.70;;;;;;;;;;4994995;28;20023;-80
2022/09/15 08:25:02;;;;;;;3.10;1.70;;;;;;;;;;4994764;28;20045;-80
2022/09/15 08:27:29;;;;;;;17.65;7.40;;;;;;;;;;4994852;28;20072;-79
2022/09/15 08:29:55;;;;;;;38.40;13.32;;;;;;;;;;5009575;28;20096;-79
2022/09/15 08:32:21;;;;;;;53.92;20.35;;;;;;;;;;5033345;28;20033;-78
2022/09/15 08:34:47;;;;;;;144.70;53.17;;;;;;;;;;5032417;28;20068;-78
2022/09/15 08:37:13;;;;;;;95.65;35.78;;;;;;;;;;5033230;28;20028;-78
2022/09/15 08:39:40;;;;;;;145.27;51.33;;;;;;;;;;5033131;28;20033;-78
2022/09/15 08:42:06;;;;;;;178.07;62.00;;;;;;;;;;5033103;28;20096;-78
2022/09/15 08:44:41;;;;;;;75.57;25.83;;;;;;;;;;5032500;28;20152;-79
2022/09/15 08:47:13;;;;;;;103.88;37.47;;;;;;;;;;5033360;28;20109;-80
2022/09/15 08:49:48;;;;;;;107.60;36.45;;;;;;;;;;5032844;28;20021;-80
2022/09/15 08:52:24;;;;;;;102.25;28.55;;;;;;;;;;5025196;28;20034;-80
2022/09/15 08:54:51;;;;;;;98.05;26.45;;;;;;;;;;5020668;28;20025;-80
2022/09/15 08:57:19;;;;;;;79.60;27.67;;;;;;;;;;5022631;28;20033;-79
2022/09/15 08:59:45;;;;;;;62.45;21.50;;;;;;;;;;5032462;28;20063;-79
2022/09/15 09:02:11;;;;;;;32.35;12.07;;;;;;;;;;5025131;28;20025;-79
2022/09/15 09:05:05;;;;;;;46.70;14.95;;;;;;;;;;5012414;28;20022;-80
2022/09/15 09:07:50;;;;;;;12.05;4.30;;;;;;;;;;5012346;28;20061;-80
2022/09/15 09:10:25;;;;;;;31.10;11.65;;;;;;;;;;5012289;28;20026;-80
2022/09/15 09:13:11;;;;;;;27.23;10.60;;;;;;;;;;5011721;28;20018;-81
2022/09/15 09:15:54;;;;;;;17.60;7.00;;;;;;;;;;5016466;28;20045;-80
2022/09/15 09:18:39;;;;;;;9.50;3.33;;;;;;;;;;5032417;28;20030;-81
2022/09/15 09:21:16;;;;;;;6.60;3.35;;;;;;;;;;5028880;28;20361;-81
2022/09/15 09:23:49;;;;;;;5.18;2.35;;;;;;;;;;5005651;28;20026;-79
2022/09/15 09:26:15;;;;;;;6.57;4.25;;;;;;;;;;5016949;28;20022;-79
2022/09/15 09:28:45;;;;;;;4.60;3.28;;;;;;;;;;5022601;28;20065;-81
2022/09/15 09:31:15;;;;;;;6.00;3.97;;;;;;;;;;5021643;28;20540;-81
2022/09/15 09:33:49;;;;;;;3.17;1.90;;;;;;;;;;5022464;28;20045;-81
2022/09/15 09:36:15;;;;;;;4.72;2.35;;;;;;;;;;5023407;28;20029;-80
2022/09/15 09:38:43;;;;;;;6.75;3.15;;;;;;;;;;5017633;28;20025;-80
2022/09/15 09:41:21;;;;;;;5.72;2.95;;;;;;;;;;5017291;28;20105;-80
2022/09/15 09:43:48;;;;;;;6.82;5.93;;;;;;;;;;5013539;28;20388;-81
2022/09/15 09:46:15;;;;;;;5.47;2.78;;;;;;;;;;5031640;28;20037;-81
2022/09/15 09:49:07;;;;;;;2.42;1.42;;;;;;;;;;5026767;28;20495;-80
2022/09/15 09:51:54;;;;;;;3.05;1.60;;;;;;;;;;4990402;28;20048;-80
2022/09/15 09:54:21;;;;;;;2.22;1.35;;;;;;;;;;5021258;28;20400;-79
2022/09/15 09:56:53;;;;;;;15.95;14.60;;;;;;;;;;5020427;28;20372;-81
2022/09/15 09:59:37;;;;;;;4.85;2.35;;;;;;;;;;5012711;28;20060;-81
2022/09/15 10:02:05;;;;;;;2.78;1.65;;;;;;;;;;5011055;28;20034;-78
2022/09/15 10:04:31;;;;;;;2.47;1.70;;;;;;;;;;5012602;28;20040;-80
2022/09/15 10:06:57;;;;;;;2.42;1.60;;;;;;;;;;5020522;28;20109;-80
2022/09/15 10:09:23;;;;;;;2.47;1.45;;;;;;;;;;5018087;28;20033;-82
2022/09/15 10:11:52;;;;;;;2.50;1.85;;;;;;;;;;5014350;28;20026;-81
2022/09/15 10:14:18;;;;;;;4.03;2.15;;;;;;;;;;5019492;28;20033;-80
2022/09/15 10:16:45;;;;;;;10.63;3.63;;;;;;;;;;5016632;28;20034;-80
2022/09/15 10:19:13;;;;;;;5.95;2.10;;;;;;;;;;5019304;28;20030;-80
2022/09/15 10:21:39;;;;;;;2.33;1.45;;;;;;;;;;5023845;28;20084;-80
2022/09/15 10:24:23;;;;;;;3.72;1.80;;;;;;;;;;5010961;28;20119;-80
2022/09/15 10:26:49;;;;;;;8.63;2.00;;;;;;;;;;5010563;28;20112;-80
2022/09/15 10:29:18;;;;;;;4.88;1.30;;;;;;;;;;5020728;28;20026;-82
2022/09/15 10:31:45;;;;;;;2.63;1.58;;;;;;;;;;5009745;28;20037;-80
2022/09/15 10:34:30;;;;;;;4.13;2.15;;;;;;;;;;5017024;28;20060;-81
2022/09/15 10:37:19;;;;;;;1.83;1.50;;;;;;;;;;5016117;28;20034;-80
2022/09/15 10:39:53;;;;;;;2.30;1.30;;;;;;;;;;5007315;28;20041;-81
2022/09/15 10:42:25;;;;;;;3.67;1.80;;;;;;;;;;5012506;28;20034;-80
2022/09/15 10:45:09;;;;;;;4.13;2.05;;;;;;;;;;5016094;28;20033;-80
2022/09/15 10:47:39;;;;;;;4.95;2.05;;;;;;;;;;5010979;28;20038;-83
2022/09/15 10:50:06;;;;;;;2.38;1.33;;;;;;;;;;5010657;28;20047;-81
2022/09/15 10:52:32;;;;;;;7.60;6.63;;;;;;;;;;5011098;28;20054;-81
2022/09/15 10:54:58;;;;;;;2.25;1.40;;;;;;;;;;5010539;28;20080;-80
2022/09/15 10:57:42;;;;;;;13.68;12.65;;;;;;;;;;5010938;28;20030;-81
2022/09/15 11:00:09;;;;;;;4.70;2.35;;;;;;;;;;5003265;28;20030;-82
2022/09/15 11:02:41;;;;;;;3.50;1.77;;;;;;;;;;5026268;28;20033;-82
2022/09/15 11:05:26;;;;;;;3.67;2.00;;;;;;;;;;5024979;28;20141;-82
2022/09/15 11:07:53;;;;;;;2.15;1.95;;;;;;;;;;5001601;28;20041;-81
2022/09/15 11:10:28;;;;;;;2.13;1.50;;;;;;;;;;5011016;28;20032;-73
2022/09/15 11:13:13;;;;;;;1.95;1.73;;;;;;;;;;4999137;28;20026;-83
2022/09/15 11:15:57;;;;;;;3.72;1.52;;;;;;;;;;5007907;28;20025;-80
2022/09/15 11:18:26;;;;;;;6.85;4.38;;;;;;;;;;5035218;28;20053;-82
2022/09/15 11:20:52;;;;;;;16.88;5.07;;;;;;;;;;5013956;28;20065;-81
2022/09/15 11:23:21;;;;;;;5.85;2.65;;;;;;;;;;5015302;28;20021;-80
2022/09/15 11:25:53;;;;;;;1.70;1.48;;;;;;;;;;5022281;28;20423;-83
2022/09/15 11:28:25;;;;;;;4.40;2.90;;;;;;;;;;5018148;28;20034;-81
2022/09/15 11:30:55;;;;;;;4.30;1.90;;;;;;;;;;5013601;28;20032;-81
2022/09/15 11:33:30;;;;;;;2.63;1.60;;;;;;;;;;5010860;28;20026;-82
2022/09/15 11:36:13;;;;;;;3.30;2.28;;;;;;;;;;5012635;28;20034;-82
2022/09/15 11:38:58;;;;;;;7.65;3.88;;;;;;;;;;5017725;28;20030;-81
2022/09/15 11:41:24;;;;;;;6.50;2.63;;;;;;;;;;5015059;28;20428;-81
2022/09/15 11:43:53;;;;;;;4.63;1.83;;;;;;;;;;5020468;28;20552;-82
2022/09/15 11:46:23;;;;;;;5.97;2.38;;;;;;;;;;5020628;28;20052;-81
2022/09/15 11:48:57;;;;;;;5.75;2.55;;;;;;;;;;5020047;28;20042;-81
2022/09/15 11:51:25;;;;;;;3.28;1.40;;;;;;;;;;5018833;28;20425;-81
2022/09/15 11:53:55;;;;;;;4.18;1.40;;;;;;;;;;5024306;28;20029;-80
2022/09/15 11:56:27;;;;;;;3.63;1.38;;;;;;;;;;5025717;28;20018;-82
2022/09/15 11:59:02;;;;;;;3.72;1.67;;;;;;;;;;5022195;28;20087;-77
2022/09/15 12:01:47;;;;;;;3.13;2.40;;;;;;;;;;5017703;28;20022;-73
2022/09/15 12:04:22;;;;;;;5.13;2.78;;;;;;;;;;5012501;28;20022;-80
2022/09/15 12:06:51;;;;;;;4.88;1.73;;;;;;;;;;5006045;28;20029;-80
2022/09/15 12:09:18;;;;;;;3.95;2.85;;;;;;;;;;5021160;28;20021;-79
2022/09/15 12:11:45;;;;;;;2.50;1.30;;;;;;;;;;5017954;28;20025;-79
2022/09/15 12:14:35;;;;;;;2.10;1.23;;;;;;;;;;5023088;28;20033;-79
2022/09/15 12:17:04;;;;;;;2.78;2.30;;;;;;;;;;5009487;28;20041;-80
2022/09/15 12:19:33;;;;;;;4.78;2.22;;;;;;;;;;5021723;28;20089;-79
2022/09/15 12:22:13;;;;;;;2.40;1.40;;;;;;;;;;5014490;28;20552;-79
2022/09/15 12:24:49;;;;;;;4.28;3.03;;;;;;;;;;5005936;28;20112;-79
2022/09/15 12:27:16;;;;;;;6.82;2.30;;;;;;;;;;5024519;28;20124;-78
2022/09/15 12:29:55;;;;;;;2.25;1.60;;;;;;;;;;5023786;28;20034;-79
2022/09/15 12:32:24;;;;;;;3.65;1.48;;;;;;;;;;5014613;28;20044;-78
2022/09/15 12:35:09;;;;;;;2.50;1.70;;;;;;;;;;5025219;28;20404;-79
2022/09/15 12:37:35;;;;;;;3.95;1.70;;;;;;;;;;5031193;28;20025;-78
2022/09/15 12:40:04;;;;;;;3.13;1.55;;;;;;;;;;5028494;28;20544;-79
2022/09/15 12:42:31;;;;;;;3.40;1.33;;;;;;;;;;5025532;28;20129;-80
2022/09/15 12:44:59;;;;;;;3.35;1.45;;;;;;;;;;5014322;28;20025;-79
2022/09/15 12:47:40;;;;;;;5.95;1.60;;;;;;;;;;5018013;28;20108;-79
2022/09/15 12:50:29;;;;;;;3.80;1.83;;;;;;;;;;5033091;28;20124;-79
2022/09/15 12:52:57;;;;;;;2.80;1.75;;;;;;;;;;5005339;28;20041;-79
2022/09/15 12:55:26;;;;;;;4.93;1.60;;;;;;;;;;5016269;28;20449;-79
2022/09/15 12:57:57;;;;;;;5.22;1.67;;;;;;;;;;5022795;28;20020;-79
2022/09/15 13:00:26;;;;;;;3.13;1.30;;;;;;;;;;5017910;28;20079;-79
2022/09/15 13:02:53;;;;;;;4.97;1.85;;;;;;;;;;5022689;28;20024;-82
2022/09/15 13:05:37;;;;;;;3.13;1.55;;;;;;;;;;5029717;28;20032;-83
2022/09/15 13:08:09;;;;;;;4.13;1.73;;;;;;;;;;5027628;28;20034;-86
2022/09/15 13:10:38;;;;;;;3.58;1.50;;;;;;;;;;5022660;28;20033;-85
2022/09/15 13:13:30;;;;;;;3.88;2.10;;;;;;;;;;5013485;28;20049;-83
2022/09/15 13:15:57;;;;;;;4.72;1.50;;;;;;;;;;5016473;28;20196;-86
2022/09/15 13:18:23;;;;;;;4.10;1.58;;;;;;;;;;5021148;28;20071;-85
2022/09/15 13:20:53;;;;;;;2.42;1.10;;;;;;;;;;5022999;28;20036;-87
2022/09/15 13:23:22;;;;;;;3.72;1.55;;;;;;;;;;5023399;28;20025;-83
2022/09/15 13:25:49;;;;;;;2.90;1.25;;;;;;;;;;5022293;28;20022;-87
2022/09/15 13:28:17;;;;;;;4.90;1.45;;;;;;;;;;5020591;28;20552;-87
2022/09/15 13:31:02;;;;;;;3.13;1.65;;;;;;;;;;5013803;28;20029;-85
2022/09/15 13:33:28;;;;;;;3.22;1.55;;;;;;;;;;5010106;28;20026;-83
2022/09/15 13:36:12;;;;;;;3.95;1.15;;;;;;;;;;5023169;28;20026;-83
2022/09/15 13:38:41;;;;;;;2.25;1.20;;;;;;;;;;5018955;28;20026;-84
2022/09/15 13:41:08;;;;;;;3.72;1.20;;;;;;;;;;5021716;28;20057;-84
2022/09/15 13:43:38;;;;;;;3.60;1.30;;;;;;;;;;5006041;28;20124;-82
2022/09/15 13:46:22;;;;;;;2.45;1.23;;;;;;;;;;5020885;28;20516;-81
2022/09/15 13:48:54;;;;;;;3.08;1.40;;;;;;;;;;5022691;28;20021;-81
2022/09/15 13:51:31;;;;;;;3.15;1.63;;;;;;;;;;5021431;28;20424;-83
2022/09/15 13:54:15;;;;;;;4.65;1.42;;;;;;;;;;5019589;28;20084;-82
2022/09/15 13:56:42;;;;;;;3.88;1.30;;;;;;;;;;5022999;28;20485;-82
2022/09/15 13:59:15;;;;;;;3.85;1.30;;;;;;;;;;5010738;28;20088;-81
2022/09/15 14:01:42;;;;;;;3.10;1.63;;;;;;;;;;5011663;28;20025;-80
2022/09/15 14:04:15;;;;;;;4.28;1.73;;;;;;;;;;5017072;28;20112;-80
2022/09/15 14:06:44;;;;;;;4.15;2.10;;;;;;;;;;5015928;28;20116;-80
2022/09/15 14:09:15;;;;;;;7.93;3.67;;;;;;;;;;5017439;28;20059;-82
2022/09/15 14:11:42;;;;;;;4.97;2.55;;;;;;;;;;5011523;28;20055;-81
2022/09/15 14:14:31;;;;;;;5.20;1.85;;;;;;;;;;5011428;28;20018;-81
2022/09/15 14:16:57;;;;;;;2.90;1.30;;;;;;;;;;5018704;28;20099;-81
2022/09/15 14:19:23;;;;;;;5.55;1.85;;;;;;;;;;5020887;28;20476;-82
2022/09/15 14:21:49;;;;;;;4.25;1.60;;;;;;;;;;5019810;28;20200;-82
2022/09/15 14:24:36;;;;;;;2.60;1.63;;;;;;;;;;5012551;28;20030;-81
2022/09/15 14:27:08;;;;;;;5.57;1.25;;;;;;;;;;5012336;28;20047;-83
2022/09/15 14:29:38;;;;;;;5.40;1.77;;;;;;;;;;5004556;28;20050;-82
2022/09/15 14:32:04;;;;;;;5.57;1.45;;;;;;;;;;5002098;28;20026;-82
2022/09/15 14:34:32;;;;;;;3.45;1.13;;;;;;;;;;5006298;28;20103;-82
2022/09/15 14:37:06;;;;;;;5.68;1.38;;;;;;;;;;5012244;28;20100;-82
2022/09/15 14:39:33;;;;;;;;;;;;;;;;;;5013045;28;20508;-83
2022/09/15 14:42:08;;;;;;;2.28;1.15;;;;;;;;;;5017371;28;20427;-82
2022/09/15 14:44:38;;;;;;;2.65;0.90;;;;;;;;;;5021120;28;20282;-82
2022/09/15 14:47:11;;;;;;;4.38;1.40;;;;;;;;;;5020818;28;20038;-82
2022/09/15 14:49:37;;;;;;;2.00;1.10;;;;;;;;;;5023297;28;20021;-82
2022/09/15 14:52:03;;;;;;;2.85;1.33;;;;;;;;;;5029643;28;20024;-83
2022/09/15 14:54:33;;;;;;;2.92;1.30;;;;;;;;;;5032321;28;20076;-83
2022/09/15 14:57:02;;;;;;;2.60;1.23;;;;;;;;;;5036163;28;20032;-83
2022/09/15 14:59:34;;;;;;;4.47;1.58;;;;;;;;;;5035738;28;20025;-84
2022/09/15 15:02:06;;;;;;;8.20;1.90;;;;;;;;;;5014721;28;20030;-80
2022/09/15 15:04:50;;;;;;;5.97;1.35;;;;;;;;;;5019825;28;20092;-80